UAL785 KDSM-KOMA
Flight info
| Callsign | UAL785 |
|---|---|
| Flight time | 0h 32m |
| Altitude | 14000 |
| Route | LANTK LANTK2 |
| Aircraft | B737/M-SDE2E3FGHIRWXY/LB1 |
Departure
| Time | 2026-04-25 13:19 |
|---|---|
| Airport | Des Moines International Airport (KDSM) |
Arrival
| Time | 2026-04-25 13:51 |
|---|---|
| Airport | Eppley Airfield (KOMA) |
| Time | Latitude | Longitude | Altitude | Speed | Heading |
|---|---|---|---|---|---|
| 2026-04-25 13:07 | 41.53173 | -93.64974 | 955 ft | 0 kts | 301° |
| 2026-04-25 13:14 | 41.53155 | -93.64986 | 953 ft | 7 kts | 174° |
| 2026-04-25 13:14 | 41.53048 | -93.64962 | 957 ft | 24 kts | 165° |
| 2026-04-25 13:14 | 41.52933 | -93.65043 | 962 ft | 23 kts | 277° |
| 2026-04-25 13:14 | 41.53050 | -93.65240 | 956 ft | 34 kts | 311° |
| 2026-04-25 13:15 | 41.53210 | -93.65474 | 950 ft | 34 kts | 311° |
| 2026-04-25 13:15 | 41.53318 | -93.65654 | 947 ft | 16 kts | 273° |
| 2026-04-25 13:15 | 41.53262 | -93.65782 | 948 ft | 21 kts | 231° |
| 2026-04-25 13:15 | 41.53142 | -93.66000 | 946 ft | 38 kts | 233° |
| 2026-04-25 13:16 | 41.52978 | -93.66303 | 943 ft | 41 kts | 234° |
| 2026-04-25 13:16 | 41.52815 | -93.66599 | 938 ft | 39 kts | 233° |
| 2026-04-25 13:16 | 41.52665 | -93.66876 | 937 ft | 35 kts | 234° |
| 2026-04-25 13:16 | 41.52525 | -93.67128 | 933 ft | 33 kts | 233° |
| 2026-04-25 13:17 | 41.52378 | -93.67384 | 927 ft | 38 kts | 232° |
| 2026-04-25 13:17 | 41.52272 | -93.67573 | 922 ft | 10 kts | 240° |
| 2026-04-25 13:17 | 41.52276 | -93.67626 | 921 ft | 0 kts | 303° |
| 2026-04-25 13:18 | 41.52276 | -93.67627 | 921 ft | 1 kts | 303° |
| 2026-04-25 13:18 | 41.52359 | -93.67657 | 922 ft | 25 kts | 26° |
| 2026-04-25 13:18 | 41.52496 | -93.67417 | 927 ft | 33 kts | 54° |
| 2026-04-25 13:18 | 41.52742 | -93.66970 | 933 ft | 103 kts | 53° |
| 2026-04-25 13:19 | 41.53332 | -93.65905 | 998 ft | 177 kts | 54° |
| 2026-04-25 13:19 | 41.54107 | -93.64475 | 1671 ft | 199 kts | 55° |
| 2026-04-25 13:19 | 41.55001 | -93.62929 | 2207 ft | 227 kts | 55° |
| 2026-04-25 13:19 | 41.55634 | -93.61772 | 2636 ft | 238 kts | 54° |
| 2026-04-25 13:20 | 41.57151 | -93.59457 | 3777 ft | 255 kts | 52° |
| 2026-04-25 13:20 | 41.58356 | -93.57552 | 4044 ft | 293 kts | 53° |
| 2026-04-25 13:20 | 41.59744 | -93.55275 | 3985 ft | 337 kts | 53° |
| 2026-04-25 13:20 | 41.61293 | -93.52697 | 3889 ft | 373 kts | 53° |
| 2026-04-25 13:21 | 41.62945 | -93.49927 | 4602 ft | 381 kts | 53° |
| 2026-04-25 13:21 | 41.64622 | -93.47247 | 6407 ft | 369 kts | 46° |
| 2026-04-25 13:21 | 41.66743 | -93.45459 | 8378 ft | 356 kts | 18° |
| 2026-04-25 13:21 | 41.69102 | -93.45132 | 10416 ft | 331 kts | 351° |
| 2026-04-25 13:22 | 41.71247 | -93.45855 | 12250 ft | 306 kts | 335° |
| 2026-04-25 13:22 | 41.73075 | -93.47106 | 13830 ft | 292 kts | 323° |
| 2026-04-25 13:22 | 41.74742 | -93.48892 | 13922 ft | 324 kts | 310° |
| 2026-04-25 13:23 | 41.76973 | -93.54555 | 14033 ft | 378 kts | 279° |
| 2026-04-25 13:23 | 41.77067 | -93.58178 | 14035 ft | 403 kts | 262° |
| 2026-04-25 13:23 | 41.76595 | -93.61908 | 13995 ft | 404 kts | 257° |
| 2026-04-25 13:23 | 41.76000 | -93.65539 | 13992 ft | 395 kts | 256° |
| 2026-04-25 13:24 | 41.75389 | -93.69066 | 13996 ft | 384 kts | 256° |
| 2026-04-25 13:24 | 41.74785 | -93.72549 | 14004 ft | 385 kts | 256° |
| 2026-04-25 13:24 | 41.74189 | -93.76048 | 14008 ft | 386 kts | 256° |
| 2026-04-25 13:24 | 41.73602 | -93.79554 | 13998 ft | 385 kts | 256° |
| 2026-04-25 13:25 | 41.73027 | -93.83052 | 13993 ft | 384 kts | 257° |
| 2026-04-25 13:25 | 41.72458 | -93.86540 | 13993 ft | 383 kts | 257° |
| 2026-04-25 13:25 | 41.71893 | -93.90023 | 13983 ft | 383 kts | 257° |
| 2026-04-25 13:25 | 41.71329 | -93.93506 | 13987 ft | 383 kts | 257° |
| 2026-04-25 13:26 | 41.70763 | -93.96995 | 13986 ft | 384 kts | 257° |
| 2026-04-25 13:26 | 41.70195 | -94.00489 | 13980 ft | 384 kts | 257° |
| 2026-04-25 13:26 | 41.69626 | -94.03985 | 13987 ft | 385 kts | 257° |
| 2026-04-25 13:26 | 41.69054 | -94.07490 | 13986 ft | 385 kts | 257° |
| 2026-04-25 13:27 | 41.68482 | -94.10992 | 13980 ft | 386 kts | 257° |
| 2026-04-25 13:27 | 41.67908 | -94.14493 | 13985 ft | 386 kts | 256° |
| 2026-04-25 13:27 | 41.67333 | -94.17998 | 13981 ft | 386 kts | 256° |
| 2026-04-25 13:27 | 41.66756 | -94.21505 | 13986 ft | 385 kts | 256° |
| 2026-04-25 13:28 | 41.66176 | -94.24999 | 13982 ft | 385 kts | 256° |
| 2026-04-25 13:28 | 41.65788 | -94.27320 | 13981 ft | 385 kts | 256° |
| 2026-04-25 13:28 | 41.65007 | -94.31999 | 13987 ft | 385 kts | 256° |
| 2026-04-25 13:28 | 41.64424 | -94.35491 | 13983 ft | 385 kts | 256° |
| 2026-04-25 13:29 | 41.63842 | -94.38988 | 13986 ft | 385 kts | 256° |
| 2026-04-25 13:29 | 41.63259 | -94.42489 | 13986 ft | 386 kts | 256° |
| 2026-04-25 13:29 | 41.62677 | -94.45987 | 13984 ft | 386 kts | 256° |
| 2026-04-25 13:30 | 41.61508 | -94.52981 | 13984 ft | 385 kts | 256° |
| 2026-04-25 13:30 | 41.60922 | -94.56473 | 13986 ft | 385 kts | 256° |
| 2026-04-25 13:30 | 41.60336 | -94.59962 | 13989 ft | 385 kts | 256° |
| 2026-04-25 13:31 | 41.59162 | -94.66933 | 13995 ft | 385 kts | 256° |
| 2026-04-25 13:31 | 41.58572 | -94.70423 | 13988 ft | 385 kts | 256° |
| 2026-04-25 13:31 | 41.57984 | -94.73912 | 14000 ft | 385 kts | 256° |
| 2026-04-25 13:31 | 41.57391 | -94.77406 | 13998 ft | 385 kts | 256° |
| 2026-04-25 13:32 | 41.56796 | -94.80896 | 13997 ft | 386 kts | 256° |
| 2026-04-25 13:32 | 41.56200 | -94.84389 | 14000 ft | 386 kts | 256° |
| 2026-04-25 13:32 | 41.55605 | -94.87884 | 13987 ft | 386 kts | 256° |
| 2026-04-25 13:32 | 41.55007 | -94.91382 | 13992 ft | 386 kts | 256° |
| 2026-04-25 13:33 | 41.54409 | -94.94875 | 13990 ft | 386 kts | 256° |
| 2026-04-25 13:33 | 41.53820 | -94.98321 | 13978 ft | 386 kts | 256° |
| 2026-04-25 13:33 | 41.53221 | -95.01805 | 13992 ft | 385 kts | 256° |
| 2026-04-25 13:33 | 41.52816 | -95.04162 | 13983 ft | 385 kts | 256° |
| 2026-04-25 13:34 | 41.52011 | -95.08818 | 13993 ft | 385 kts | 256° |
| 2026-04-25 13:34 | 41.51424 | -95.12220 | 13975 ft | 375 kts | 256° |
| 2026-04-25 13:34 | 41.51025 | -95.15564 | 13978 ft | 355 kts | 264° |
| 2026-04-25 13:34 | 41.50875 | -95.18766 | 13976 ft | 336 kts | 264° |
| 2026-04-25 13:35 | 41.50724 | -95.21790 | 13986 ft | 318 kts | 264° |
| 2026-04-25 13:35 | 41.50569 | -95.24655 | 13974 ft | 302 kts | 264° |
| 2026-04-25 13:35 | 41.50416 | -95.27355 | 13968 ft | 282 kts | 263° |
| 2026-04-25 13:35 | 41.50267 | -95.29915 | 13706 ft | 274 kts | 263° |
| 2026-04-25 13:36 | 41.50115 | -95.32455 | 13178 ft | 276 kts | 263° |
| 2026-04-25 13:36 | 41.49963 | -95.35014 | 12800 ft | 276 kts | 264° |
| 2026-04-25 13:36 | 41.49991 | -95.37579 | 12486 ft | 276 kts | 270° |
| 2026-04-25 13:36 | 41.50118 | -95.40131 | 12140 ft | 276 kts | 271° |
| 2026-04-25 13:37 | 41.50260 | -95.42687 | 11801 ft | 276 kts | 271° |
| 2026-04-25 13:37 | 41.50407 | -95.45236 | 11439 ft | 275 kts | 271° |
| 2026-04-25 13:37 | 41.50561 | -95.47777 | 11093 ft | 275 kts | 271° |
| 2026-04-25 13:37 | 41.50712 | -95.50314 | 10756 ft | 274 kts | 271° |
| 2026-04-25 13:38 | 41.50870 | -95.52847 | 10427 ft | 274 kts | 272° |
| 2026-04-25 13:38 | 41.51035 | -95.55381 | 10092 ft | 274 kts | 271° |
| 2026-04-25 13:38 | 41.51079 | -95.57907 | 9712 ft | 270 kts | 257° |
| 2026-04-25 13:38 | 41.50387 | -95.60181 | 9390 ft | 263 kts | 237° |
| 2026-04-25 13:39 | 41.49555 | -95.62342 | 9101 ft | 262 kts | 242° |
| 2026-04-25 13:39 | 41.48797 | -95.64561 | 8737 ft | 263 kts | 242° |
| 2026-04-25 13:39 | 41.48084 | -95.66801 | 8416 ft | 262 kts | 244° |
| 2026-04-25 13:39 | 41.47413 | -95.69060 | 8112 ft | 261 kts | 245° |
| 2026-04-25 13:40 | 41.46757 | -95.71312 | 7820 ft | 260 kts | 244° |
| 2026-04-25 13:40 | 41.46112 | -95.73560 | 7538 ft | 259 kts | 244° |
| 2026-04-25 13:40 | 41.45476 | -95.75805 | 7253 ft | 258 kts | 244° |
| 2026-04-25 13:40 | 41.44856 | -95.78043 | 6981 ft | 257 kts | 245° |
| 2026-04-25 13:41 | 41.44244 | -95.80279 | 6721 ft | 256 kts | 244° |
| 2026-04-25 13:41 | 41.43646 | -95.82495 | 6379 ft | 253 kts | 244° |
| 2026-04-25 13:41 | 41.43053 | -95.84714 | 5915 ft | 255 kts | 245° |
| 2026-04-25 13:41 | 41.42468 | -95.86928 | 5520 ft | 252 kts | 245° |
| 2026-04-25 13:42 | 41.41887 | -95.89125 | 5131 ft | 250 kts | 245° |
| 2026-04-25 13:42 | 41.41324 | -95.91266 | 4979 ft | 237 kts | 245° |
| 2026-04-25 13:42 | 41.40805 | -95.93268 | 4913 ft | 220 kts | 245° |
| 2026-04-25 13:42 | 41.40342 | -95.95126 | 4765 ft | 203 kts | 245° |
| 2026-04-25 13:43 | 41.39923 | -95.96856 | 4614 ft | 188 kts | 245° |
| 2026-04-25 13:43 | 41.39545 | -95.98463 | 4447 ft | 179 kts | 245° |
| 2026-04-25 13:43 | 41.38996 | -95.99865 | 4133 ft | 166 kts | 216° |
| 2026-04-25 13:43 | 41.37981 | -96.00470 | 3667 ft | 160 kts | 186° |
| 2026-04-25 13:44 | 41.36886 | -96.00723 | 3307 ft | 161 kts | 188° |
| 2026-04-25 13:44 | 41.35789 | -96.01031 | 3050 ft | 162 kts | 186° |
| 2026-04-25 13:44 | 41.34681 | -96.01294 | 3027 ft | 161 kts | 186° |
| 2026-04-25 13:44 | 41.33605 | -96.01498 | 3016 ft | 153 kts | 182° |
| 2026-04-25 13:45 | 41.32569 | -96.01640 | 2992 ft | 147 kts | 181° |
| 2026-04-25 13:45 | 41.31530 | -96.01717 | 3015 ft | 152 kts | 178° |
| 2026-04-25 13:45 | 41.30486 | -96.01725 | 3007 ft | 152 kts | 177° |
| 2026-04-25 13:45 | 41.29433 | -96.01728 | 3011 ft | 150 kts | 177° |
| 2026-04-25 13:46 | 41.28386 | -96.01720 | 3001 ft | 149 kts | 176° |
| 2026-04-25 13:46 | 41.27347 | -96.01703 | 2968 ft | 150 kts | 177° |
| 2026-04-25 13:46 | 41.26319 | -96.01629 | 2948 ft | 147 kts | 173° |
| 2026-04-25 13:46 | 41.25298 | -96.01486 | 2891 ft | 147 kts | 170° |
| 2026-04-25 13:47 | 41.24299 | -96.01251 | 2860 ft | 145 kts | 163° |
| 2026-04-25 13:47 | 41.23402 | -96.00694 | 2859 ft | 143 kts | 143° |
| 2026-04-25 13:47 | 41.22761 | -95.99681 | 2804 ft | 146 kts | 117° |
| 2026-04-25 13:47 | 41.22553 | -95.98329 | 2692 ft | 155 kts | 97° |
| 2026-04-25 13:48 | 41.22546 | -95.96900 | 2649 ft | 153 kts | 96° |
| 2026-04-25 13:48 | 41.22539 | -95.95489 | 2540 ft | 152 kts | 95° |
| 2026-04-25 13:48 | 41.22548 | -95.94127 | 2390 ft | 142 kts | 97° |
| 2026-04-25 13:48 | 41.22488 | -95.92868 | 2412 ft | 139 kts | 98° |
| 2026-04-25 13:49 | 41.22445 | -95.91585 | 2679 ft | 137 kts | 96° |
| 2026-04-25 13:49 | 41.22663 | -95.90389 | 2591 ft | 141 kts | 65° |
| 2026-04-25 13:49 | 41.23452 | -95.89523 | 2552 ft | 162 kts | 24° |
| 2026-04-25 13:49 | 41.24639 | -95.89465 | 2343 ft | 174 kts | 359° |
| 2026-04-25 13:50 | 41.25817 | -95.89545 | 2028 ft | 165 kts | 8° |
| 2026-04-25 13:50 | 41.26953 | -95.89471 | 1596 ft | 161 kts | 0° |
| 2026-04-25 13:50 | 41.28067 | -95.89463 | 1242 ft | 158 kts | 359° |
| 2026-04-25 13:50 | 41.29125 | -95.89469 | 1014 ft | 146 kts | 360° |
| 2026-04-25 13:51 | 41.30035 | -95.89467 | 985 ft | 108 kts | 0° |
| 2026-04-25 13:51 | 41.30497 | -95.89459 | 985 ft | 29 kts | 359° |
| 2026-04-25 13:51 | 41.30607 | -95.89514 | 993 ft | 8 kts | 322° |
| 2026-04-25 13:51 | 41.30631 | -95.89577 | 990 ft | 8 kts | 253° |
| 2026-04-25 13:52 | 41.30577 | -95.89603 | 987 ft | 9 kts | 184° |
| 2026-04-25 13:52 | 41.30509 | -95.89603 | 988 ft | 11 kts | 180° |
| 2026-04-25 13:52 | 41.30393 | -95.89604 | 987 ft | 29 kts | 179° |
| 2026-04-25 13:52 | 41.30193 | -95.89604 | 988 ft | 28 kts | 180° |
| 2026-04-25 13:53 | 41.30043 | -95.89604 | 987 ft | 10 kts | 180° |
| 2026-04-25 13:53 | 41.29998 | -95.89659 | 983 ft | 12 kts | 259° |
| 2026-04-25 13:53 | 41.29983 | -95.89815 | 984 ft | 11 kts | 265° |
| 2026-04-25 13:53 | 41.30025 | -95.89872 | 984 ft | 6 kts | 346° |
| 2026-04-25 13:54 | 41.30034 | -95.89874 | 986 ft | 0 kts | 352° |